PH4 weather

CLOSED Russell Airport
Embrun, Ontario, Canada

Public forecast

Using degrees Celsius for public forecast. Weather courtesy of forecast.io.

Closest aviation weather report (METAR) to Russell Airport

Closest report is Ottawa Macdonald-Cartier International Airport, 15.4 nm (28.4 km) W. Retrieved 2020/06/02 07:00 UTC (1 hour ago):

CYOW 020700Z 06004KT 15SM SCT090 OVC120 08/06 A3000 RMK AC3AC5 SLP164

Closest aviation forecast (TAF) to Russell Airport

Closest forecast is Ottawa Macdonald-Cartier International Airport, 15.4 nm (28.4 km) W. Retrieved 2020/06/02 06:57 UTC (1 hour ago):

TAF TAF CYOW 020555Z 0206/0306 06005KT P6SM BKN180 BECMG 0207/0209 BKN110 OVC200 FM021000 06005KT P6SM OVC080 TEMPO 0210/0214 P6SM -SHRA BKN060 FM021700 20008KT P6SM BKN040 OVC060 FM022100 22010KT P6SM -SHRA SCT025 OVC040 TEMPO 0222/0303 6SM -SHRA BR BKN020 OVC040 BECMG 0223/0301 16008KT FM030300 15005KT P6SM -SHRA SCT008 OVC020 TEMPO 0303/0306 4SM -SHRA BR BKN008 RMK NXT FCST BY 020900Z